Chilcoot, CA (96105)

12:09 PM PDT on August 30, 2014 (GMT -0700)
KCAPORTO2 | Change Station
CLOSE
Current Station
Personal Weather Station
Location: Portola, CA
Elevation: 4923 ft
Nearby Weather Stations

Elev 4923 ft 39.82 °N, 120.47 °W | Updated 19 seconds ago

Clear
Clear
82.4 °F
Feels Like 80 °F
N
0.0
Wind Variable Wind from SSE
Gusts 10.0 mph

Today
High -- | Low -- °F
--% Chance of Precip.
Yesterday
High -- | Low -- °F
Precip. -- in
6:27 AM 7:35 PM
Waxing Crescent, 24% visible
Pressure 30.05 in
Visibility 10.0 miles
Clouds Clear
Heat Index 80 °F
Dew Point 30 °F
Humidity 15%
Rainfall 0.00 in
Snow Depth Not available.
UV 9 out of 12
Pollen 9.00 out of 12
Air Quality Not available.
Flu Activity Not available.
METAR KRTS 301855Z AUTO 27016G23KT 10SM CLR 27/M02 A3005 RMK AO2

More Conditions Fewer Conditions

Pressure 30.05 in
Visibility 10.0 miles
Clouds Clear
Heat Index 80 °F
Dew Point 30 °F
Humidity 15%
Rainfall 0.00 in
Snow Depth Not available.
UV 9 out of 12
Pollen 9.00 out of 12
Air Quality Not available.
Flu Activity Not available.
METAR KRTS 301855Z AUTO 27016G23KT 10SM CLR 27/M02 A3005 RMK AO2

More Conditions Fewer Conditions

10-Day Weather Forecast

Almanac

Astronomy

Aug. 30, 2014 Rise Set
Actual Time 6:27 AM PDT 7:35 PM PDT
Civil Twilight 5:59 AM PDT 8:02 PM PDT
Nautical Twilight 5:25 AM PDT 8:35 PM PDT
Astronomical Twilight 4:51 AM PDT 9:10 PM PDT
Moon 11:18 AM PDT 10:13 PM PDT
Length of Visible Light 14h 03m
Length of Day
13h 08m
Tomorrow will be 2m 29s shorter.
Waxing Crescent, 24% of the Moon is Illuminated
Today
Waxing Crescent
Sep 2
First Quarter
Sep 8
Full
Sep 15
Last Quarter
Sep 24
New

Today's Extremes

State Highs State Lows

Community

WunderPhotos

Upload Photos

1,748,596 photos uploaded!

WunderBlogs® & News

Nearby

Snow Depth

Station Depth Elevation
CSS Lab 0 in 6900 ft
Forestdale Creek 0 in 8029 ft
Blue Lakes 0 in 8000 ft
Monitor Pass 0 in 8350 ft
Adin Mountain 0 in 6200 ft

Earthquake Activity

City Distance Mag. Time & Date
No recent earthquake activity has been reported nearby.
Minimum magnitude displayed is 2.5.

Coastal Water Temperatures

Place Temperature
No Stations Reporting

Nearby Weather Stations